Latest Coastal Weather Observations for Hervey Bay

IDQ60701

Issued at 5:15 am EST Tuesday 2 September 2014 (issued every 10 minutes, with the page automatically refreshed every 10 minutes)

About coastal observations | Map of coastal stations | Coastal observations for QLD | Marine services | Other Formats
Station Details ID: 040405 Name: HERVEY BAY AIRPORT Lat: -25.32 Lon: 152.88 Height: 12.98 m
Data from the previous 72 hours. | See also: Recent months at Hervey Bay
Date/Time
EST
Temp

°C
Wind Pressure Rain
since 9am
mm
Weather Cloud Vis
km
Sea
Height
m
Swell
Dir
 
Speed
knots
Gust
knots
hPa Trend Height
m
Period
s
Dir
02/05:00am 16.8 WNW 7 9 1015.9 - 0.0 - Cloudy 0.5 - - - -
02/04:39am 16.6 NW 7 8 1015.9 - 0.0 - Partly cloudy 0.4 - - - -
02/04:32am 16.9 WNW 6 8 1015.8 - 0.0 - Partly cloudy 4 - - - -
02/04:30am 17.0 WNW 6 8 1015.8 - 0.0 - Partly cloudy 10 - - - -
02/04:00am 18.3 N 7 9 1015.8 - 0.0 - - 10 - - - -
02/03:30am 18.2 N 7 9 1015.8 - 0.0 - - 10 - - - -
02/03:00am 17.9 N 5 8 1015.8 - 0.0 - - 10 - - - -
02/02:30am 18.0 N 5 7 1015.9 - 0.0 - - 10 - - - -
02/02:00am 18.0 N 6 8 1016.1 - 0.0 - - 10 - - - -
02/01:30am 18.0 N 5 8 1016.4 - 0.0 - - 10 - - - -
02/01:00am 18.1 N 5 7 1016.7 - 0.0 - - 10 - - - -
02/12:30am 18.4 N 6 9 1017.1 - 0.0 - - 10 - - - -
02/12:00am 18.3 N 6 9 1017.1 - 0.0 - - 10 - - - -
 
Date/Time
EST
Temp

°C
Wind Pressure Rain
since 9am
mm
Weather Cloud Vis
km
Sea
Height
m
Swell
Dir
 
Speed
knots
Gust
knots
hPa Trend Height
m
Period
s
Dir
01/11:30pm 18.5 N 6 8 1017.2 - 0.0 - - 10 - - - -
01/11:00pm 18.6 N 7 10 1017.3 - 0.0 - - 10 - - - -
01/10:30pm 18.4 N 6 8 1017.5 - 0.0 - - 10 - - - -
01/10:00pm 18.2 N 6 8 1017.7 - 0.0 - - 10 - - - -
01/09:30pm 18.2 N 5 7 1017.7 - 0.0 - - 10 - - - -
01/09:00pm 18.2 N 6 8 1017.7 - 0.0 - - 10 - - - -
01/08:30pm 18.4 N 6 8 1018.0 - 0.0 - - 10 - - - -
01/08:00pm 18.4 N 6 8 1017.6 - 0.0 - - 10 - - - -
01/07:30pm 18.5 N 6 8 1017.9 - 0.0 - - 10 - - - -
01/07:00pm 18.6 N 6 8 1017.7 - 0.0 - - 10 - - - -
01/06:30pm 18.7 N 7 10 1017.4 - 0.0 - - 10 - - - -
01/06:00pm 19.1 N 7 10 1016.9 - 0.0 - - 10 - - - -
01/05:30pm 19.3 N 7 11 1016.8 - 0.0 - - 10 - - - -
01/05:00pm 20.2 N 9 12 1016.4 - 0.0 - - 10 - - - -
01/04:30pm 20.8 N 8 11 1016.5 - 0.0 - - 10 - - - -
01/04:00pm 21.4 N 9 13 1016.4 - 0.0 - - 10 - - - -
01/03:30pm 21.6 N 11 14 1016.1 - 0.0 - - 10 - - - -
01/03:00pm 22.1 N 10 14 1016.1 - 0.0 - - 10 - - - -
01/02:30pm 22.6 N 10 13 1016.6 - 0.0 - - 10 - - - -
01/02:00pm 22.7 N 9 13 1017.0 - 0.0 - - 10 - - - -
01/01:30pm 23.3 N 10 15 1017.4 - 0.0 - - 10 - - - -
01/01:00pm 22.9 N 9 12 1017.9 - 0.0 - - 10 - - - -
01/12:30pm 22.9 NNW 8 11 1018.0 - 0.0 - - 10 - - - -
01/12:00pm 22.6 NNW 8 11 1018.1 - 0.0 - - 10 - - - -
01/11:30am 22.2 N 8 11 1018.5 - 0.0 - - 10 - - - -
01/11:00am 22.4 N 6 9 1019.1 - 0.0 - - 10 - - - -
01/10:30am 22.9 N 8 11 1020.0 - 0.0 - Partly cloudy 10 - - - -
01/10:00am 20.8 WNW 6 8 1020.0 - 0.0 - Partly cloudy 10 - - - -
01/09:30am 21.2 NNW 4 6 1020.2 - 0.0 - - 10 - - - -
01/09:00am 20.5 WSW 1 5 1020.4 - 0.2 - - 10 - - - -
01/08:30am 19.3 NE 1 4 1020.2 - 0.2 - - 10 - - - -
01/08:00am 17.4 CALM 0 3 1019.8 - 0.2 - - 10 - - - -
01/07:30am 15.6 CALM 0 0 1019.5 - 0.2 - - 10 - - - -
01/07:00am 13.2 CALM 0 0 1019.3 - 0.2 - - 10 - - - -
01/06:30am 11.3 CALM 0 0 1019.1 - 0.2 - - 10 - - - -
01/06:00am 10.7 CALM 0 0 1019.0 - 0.2 - - 10 - - - -
01/05:30am 10.8 SW 3 5 1018.8 - 0.2 - - 10 - - - -
01/05:00am 10.5 S 2 4 1018.4 - 0.2 - - 10 - - - -
01/04:30am 10.6 CALM 0 0 1018.2 - 0.2 - - 10 - - - -
01/04:00am 10.8 CALM 0 0 1018.3 - 0.2 - Partly cloudy 10 - - - -
01/03:30am 11.2 CALM 0 0 1018.2 - 0.2 - Partly cloudy 10 - - - -
01/03:00am 10.7 SW 2 4 1018.1 - 0.2 - - 10 - - - -
01/02:30am 10.7 WSW 1 4 1018.1 - 0.2 - - 10 - - - -
01/02:00am 10.9 CALM 0 0 1018.3 - 0.2 - - 10 - - - -
01/01:30am 11.2 CALM 0 0 1018.3 - 0.2 - - 10 - - - -
01/01:00am 11.1 CALM 0 0 1018.6 - 0.2 - - 10 - - - -
01/12:30am 11.3 CALM 0 0 1018.6 - 0.2 - - 10 - - - -
01/12:00am 11.6 CALM 0 0 1018.8 - 0.2 - - 10 - - - -
 
Date/Time
EST
Temp

°C
Wind Pressure Rain
since 9am
mm
Weather Cloud Vis
km
Sea
Height
m
Swell
Dir
 
Speed
knots
Gust
knots
hPa Trend Height
m
Period
s
Dir
31/11:30pm 11.8 CALM 0 0 1018.9 - 0.2 - - 10 - - - -
31/11:00pm 12.2 CALM 0 0 1019.1 - 0.2 - - 10 - - - -
31/10:30pm 12.2 CALM 0 0 1019.0 - 0.2 - - 10 - - - -
31/10:00pm 12.7 CALM 0 0 1018.8 - 0.2 - - 10 - - - -
31/09:30pm 12.8 CALM 0 0 1018.8 - 0.2 - - 10 - - - -
31/09:00pm 13.3 CALM 0 0 1018.7 - 0.2 - Mostly clear 10 - - - -
31/08:30pm 13.9 CALM 0 0 1018.6 - 0.2 - Partly cloudy 10 - - - -
31/08:00pm 14.2 CALM 0 0 1018.4 - 0.2 - Partly cloudy 10 - - - -
31/07:30pm 14.8 CALM 0 0 1018.2 - 0.2 - - 10 - - - -
31/07:00pm 15.8 NE 2 4 1017.6 - 0.2 - - 10 - - - -
31/06:30pm 17.7 NNE 3 4 1017.2 - 0.2 - - 10 - - - -
31/06:00pm 18.1 NNE 5 6 1016.7 - 0.2 - - 10 - - - -
31/05:30pm 19.3 NNE 6 8 1016.6 - 0.2 - - 10 - - - -
31/05:00pm 20.5 NNE 7 8 1016.4 - 0.2 - - 10 - - - -
31/04:30pm 21.3 N 7 10 1016.0 - 0.2 - - 10 - - - -
31/04:00pm 21.5 NNE 9 13 1015.9 - 0.2 - - 10 - - - -
31/03:30pm 21.7 N 8 12 1015.8 - 0.2 - - 10 - - - -
31/03:00pm 22.1 N 9 12 1015.8 - 0.2 - - 10 - - - -
31/02:30pm 22.7 N 7 8 1015.9 - 0.2 - - 10 - - - -
31/02:00pm 22.5 N 7 11 1016.0 - 0.2 - - 10 - - - -
31/01:30pm 22.9 NNE 7 9 1016.3 - 0.2 - - 10 - - - -
31/01:00pm 22.5 N 7 9 1016.6 - 0.2 - - 10 - - - -
31/12:30pm 22.3 NNE 7 10 1017.0 - 0.2 - - 10 - - - -
31/12:00pm 22.7 NNE 6 10 1017.4 - 0.0 - - 10 - - - -
31/11:30am 21.8 ENE 7 11 1018.2 - 0.0 - - 10 - - - -
31/11:00am 21.2 E 7 9 1018.5 - 0.0 - - 10 - - - -
31/10:30am 21.4 E 6 8 1018.7 - 0.0 - - 10 - - - -
31/10:00am 21.5 SW 3 5 1019.1 - 0.0 - - 10 - - - -
31/09:30am 20.2 SW 4 6 1019.3 - 0.0 - - 10 - - - -
31/09:00am 18.5 SSW 4 5 1019.3 - 0.0 - - 10 - - - -
31/08:30am 17.2 SSW 5 7 1019.5 - 0.0 - - 10 - - - -
31/08:00am 15.3 SW 4 5 1019.4 - 0.0 - - 10 - - - -
31/07:30am 13.6 SSW 4 5 1019.1 - 0.0 - - 10 - - - -
31/07:00am 11.9 S 3 5 1019.0 - 0.0 - - 10 - - - -
31/06:30am 10.2 CALM 0 0 1018.7 - 0.0 - - 10 - - - -
31/06:00am 9.0 CALM 0 3 1018.3 - 0.0 - - 10 - - - -
31/05:30am 9.0 CALM 0 0 1018.2 - 0.0 - - 10 - - - -
31/05:00am 9.4 CALM 0 0 1018.0 - 0.0 - - 10 - - - -
31/04:30am 9.3 WSW 2 3 1017.7 - 0.0 - - 10 - - - -
31/04:00am 9.2 WSW 2 4 1017.8 - 0.0 - - 10 - - - -
31/03:30am 9.4 CALM 0 0 1017.7 - 0.0 - - 10 - - - -
31/03:00am 9.5 CALM 0 0 1017.8 - 0.0 - - 10 - - - -
31/02:30am 9.7 CALM 0 0 1018.1 - 0.0 - - 10 - - - -
31/02:00am 10.2 CALM 0 0 1018.2 - 0.0 - - 10 - - - -
31/01:30am 10.5 SE 1 4 1018.3 - 0.0 - Partly cloudy 10 - - - -
31/01:00am 10.9 CALM 0 0 1018.4 - 0.0 - Partly cloudy 10 - - - -
31/12:30am 10.8 CALM 0 0 1018.8 - 0.0 - Partly cloudy 10 - - - -
31/12:00am 10.4 NE 2 3 1019.0 - 0.0 - Partly cloudy 10 - - - -
 
Date/Time
EST
Temp

°C
Wind Pressure Rain
since 9am
mm
Weather Cloud Vis
km
Sea
Height
m
Swell
Dir
 
Speed
knots
Gust
knots
hPa Trend Height
m
Period
s
Dir
30/11:30pm 10.3 CALM 0 0 1019.2 - 0.0 - - 10 - - - -
30/11:00pm 10.6 CALM 0 0 1019.2 - 0.0 - Partly cloudy 10 - - - -
30/10:30pm 10.9 CALM 0 0 1019.2 - 0.0 - - 10 - - - -
30/10:00pm 10.9 CALM 0 0 1019.4 - 0.0 - - 10 - - - -
30/09:30pm 11.3 CALM 0 0 1019.3 - 0.0 - - 10 - - - -
30/09:00pm 11.4 NE 3 4 1019.2 - 0.0 - - 10 - - - -
30/08:30pm 11.6 CALM 0 0 1019.1 - 0.0 - - 10 - - - -
30/08:00pm 12.4 CALM 0 0 1018.8 - 0.0 - - 10 - - - -
30/07:30pm 12.8 CALM 0 0 1018.4 - 0.0 - - 10 - - - -
30/07:00pm 13.5 NE 3 4 1018.0 - 0.0 - - 10 - - - -
30/06:30pm 14.2 CALM 0 0 1017.5 - 0.0 - - 10 - - - -
30/06:00pm 16.1 E 4 4 1017.2 - 0.0 - - 10 - - - -
30/05:30pm 17.9 NNE 3 4 1016.9 - 0.0 - - 10 - - - -
30/05:00pm 19.4 N 5 8 1016.7 - 0.0 - - 10 - - - -
30/04:30pm 20.1 N 6 8 1016.5 - 0.0 - - 10 - - - -
30/04:00pm 20.8 NNE 7 9 1016.4 - 0.0 - - 10 - - - -
30/03:30pm 21.0 N 8 10 1016.3 - 0.0 - - 10 - - - -
30/03:00pm 21.1 NNE 8 11 1016.3 - 0.0 - - 10 - - - -
30/02:30pm 21.2 N 8 10 1016.5 - 0.0 - - 10 - - - -
30/02:00pm 21.0 NNE 8 12 1016.7 - 0.0 - - 10 - - - -
30/01:30pm 21.4 NNE 9 12 1017.0 - 0.0 - - 10 - - - -
30/01:00pm 21.1 NNE 9 14 1017.2 - 0.0 - - 10 - - - -
30/12:30pm 21.7 NNE 10 13 1017.4 - 0.0 - - 10 - - - -
30/12:00pm 21.9 N 10 13 1018.0 - 0.0 - - 10 - - - -
30/11:30am 20.9 N 9 12 1018.6 - 0.0 - Partly cloudy 10 - - - -
30/11:00am 20.2 E 4 8 1019.3 - 0.0 - Partly cloudy 10 - - - -
30/10:30am 19.5 E 7 8 1019.9 - 0.0 - Partly cloudy 10 - - - -
30/10:00am 20.6 NW 6 9 1020.1 - 0.0 - Partly cloudy 10 - - - -
30/09:30am 19.2 SW 5 7 1020.3 - 0.0 - - 10 - - - -
30/09:00am 18.1 WSW 5 7 1020.5 - 0.0 - - 10 - - - -
30/08:30am 16.2 WSW 6 8 1020.8 - 0.0 - - 10 - - - -
30/08:00am 14.9 SSW 5 7 1020.8 - 0.0 - - 10 - - - -
30/07:30am 13.7 SSW 4 5 1020.7 - 0.0 - - 10 - - - -
30/07:00am 11.6 CALM 0 0 1020.6 - 0.0 - - 10 - - - -
30/06:30am 9.4 CALM 0 0 1020.5 - 0.0 - - 10 - - - -
30/06:00am 8.9 CALM 0 0 1020.2 - 0.0 - - 10 - - - -
30/05:30am 9.4 CALM 0 0 1020.0 - 0.0 - - 10 - - - -

Other Formats:

Comma delimited format used in spreadsheet applications
http://www.bom.gov.au/fwo/IDQ60701/IDQ60701.95565.axf

JavaScript Object Notation format (JSON) in row-major order
http://www.bom.gov.au/fwo/IDQ60701/IDQ60701.95565.json